Olivia Sylvie — FMIF — position and weather

sailwx.info

Track history (hours):
 
Tides and Currents Weather Stations Pressure Air Temp Water Temp Dewpoint Dewpoint Depression Visibility Wind Speed Wind Dir Waves Ship Positions

Olivia Sylvie

Last reported at 2014-Sep-01 07:33 UTC. Time now 2014-Sep-01 07:46 UTC.
Position N 43°24' E 004°59'.

Length 23 m.

Type: Fishing. MMSI: 228236800.

Date/timePositionNaut miles runAvg speedWind from/ knotsBaromVisibWave heightAir tempDewpointWater temp
2014-Sep-01 07:33N 43°24' E 004°59'0 0.2
2014-Sep-01 06:33N 43°24' E 004°60'  
2014-Aug-29 16:24N 43°24' E 004°60'0 0.0
2014-Aug-29 15:33N 43°24' E 004°60'0 0.0
2014-Aug-29 14:33N 43°24' E 004°60'2 2.2
2014-Aug-29 13:33N 43°22' E 004°60'6 6.0
2014-Aug-29 12:33N 43°16' E 005°02'4 3.6
2014-Aug-29 11:30N 43°15' E 004°57'4 3.9
2014-Aug-29 10:33N 43°12' E 004°53'8 3.9
2014-Aug-29 08:33N 43°08' E 004°44'4 3.7
2014-Aug-29 07:28N 43°05' E 004°40'11 3.5
2014-Aug-29 04:23N 43°15' E 004°47'4 4.2
2014-Aug-29 03:33N 43°16' E 004°51'5 5.2
2014-Aug-29 02:33N 43°20' E 004°57'5 0.5
2014-Aug-28 15:33N 43°24' E 004°60'0 0.0
2014-Aug-28 14:33N 43°24' E 004°60'3 2.5
2014-Aug-28 13:33N 43°22' E 004°58'7 7.0
2014-Aug-28 12:34N 43°15' E 004°57'4 3.7
2014-Aug-28 11:34N 43°12' E 004°53'4 4.1
2014-Aug-28 10:31N 43°12' E 004°47'10 4.3
2014-Aug-28 08:16N 43°07' E 004°35'1 1.5
2014-Aug-28 07:33N 43°07' E 004°34'5 3.5
2014-Aug-28 06:09N 43°09' E 004°40'8 4.1
2014-Aug-28 04:14N 43°15' E 004°47'3 4.2
2014-Aug-28 03:34N 43°16' E 004°51'4 4.1
2014-Aug-28 02:33N 43°18' E 004°56'7 0.6
2014-Aug-27 15:34N 43°24' E 004°60'0 0.0
2014-Aug-27 14:33N 43°24' E 004°60'2 1.6
2014-Aug-27 13:33N 43°23' E 004°59'7 6.8
2014-Aug-27 12:33N 43°16' E 004°59'4 3.7
2014-Aug-27 11:34N 43°14' E 004°55'5 4.1
2014-Aug-27 10:27N 43°12' E 004°49'9 2.8
2014-Aug-27 07:20N 43°07' E 004°39'3 4.0
2014-Aug-27 06:33N 43°09' E 004°42'5 4.1
2014-Aug-27 05:18N 43°14' E 004°45'4 4.1
2014-Aug-27 04:14N 43°16' E 004°50'3 4.1
2014-Aug-27 03:28N 43°17' E 004°54'6 6.2
2014-Aug-27 02:34N 43°22' E 004°58'2 0.2
2014-Aug-26 16:11N 43°24' E 004°60'0 0.0
2014-Aug-26 15:33N 43°24' E 004°60'0 0.3
2014-Aug-26 14:34N 43°24' E 004°59'2 1.8
2014-Aug-26 13:33N 43°22' E 004°59'6 6.4
2014-Aug-26 12:33N 43°16' E 005°00'4 3.7
2014-Aug-26 11:33N 43°15' E 004°56'4 3.7
2014-Aug-26 10:33N 43°12' E 004°52'12 3.7
2014-Aug-26 07:24N 43°04' E 004°40'14 4.3
2014-Aug-26 04:15N 43°16' E 004°50'1 1.3
2014-Aug-26 03:25N 43°16' E 004°51'4 4.5
2014-Aug-26 02:33N 43°19' E 004°55'6 6.4
2014-Aug-26 01:33N 43°24' E 004°60'0 0.0
2014-Aug-26 00:33N 43°24' E 004°60'0 0.0
2014-Aug-25 23:33N 43°24' E 004°60'0 0.0
2014-Aug-25 22:33N 43°24' E 004°60'0 0.0
2014-Aug-25 21:33N 43°24' E 004°60'0 0.0
2014-Aug-25 20:33N 43°24' E 004°60'0 0.0
2014-Aug-25 19:33N 43°24' E 004°60'0 0.0
2014-Aug-25 18:33N 43°24' E 004°60'0 0.0
2014-Aug-25 17:33N 43°24' E 004°60'0 0.0
2014-Aug-25 16:33N 43°24' E 004°60'0 0.0
2014-Aug-25 15:33N 43°24' E 004°60'0 0.0
2014-Aug-25 14:33N 43°24' E 004°60'4 3.6
2014-Aug-25 13:34N 43°21' E 004°59'3 3.3
2014-Aug-25 12:33N 43°18' E 004°56'4 3.9
2014-Aug-25 11:33N 43°17' E 004°51'4 4.1
2014-Aug-25 10:31N 43°14' E 004°46'4 4.2
2014-Aug-25 09:32N 43°10' E 004°44'7 3.3
2014-Aug-25 07:25N 43°04' E 004°39'4 3.9
2014-Aug-25 06:18N 43°08' E 004°42'8 3.9
2014-Aug-25 04:07N 43°15' E 004°48'2 4.2
2014-Aug-25 03:33N 43°16' E 004°51'4 4.4
2014-Aug-25 02:33N 43°18' E 004°56'  
2014-Aug-22 16:33N 43°24' E 004°60'0 0.0
2014-Aug-22 15:33N 43°24' E 004°60'0 0.0
2014-Aug-22 14:33N 43°24' E 004°60'4 3.9
2014-Aug-22 13:33N 43°21' E 004°57'4 4.3
2014-Aug-22 12:34N 43°18' E 004°53'4 4.0
2014-Aug-22 11:33N 43°16' E 004°48'4 3.9
2014-Aug-22 10:30N 43°12' E 004°45'3 3.7
2014-Aug-22 09:33N 43°14' E 004°49'4 4.1
2014-Aug-22 08:29N 43°15' E 004°55'1 1.4
2014-Aug-22 07:34N 43°15' E 004°57'  
Track history (hours):
 
Tides and Currents Weather Stations Pressure Air Temp Water Temp Dewpoint Dewpoint Depression Visibility Wind Speed Wind Dir Waves Ship Positions

Olivia Sylvie

Last reported at 2014-Sep-01 07:33 UTC. Time now 2014-Sep-01 07:46 UTC.
Position N 43°24' E 004°59'.

Length 23 m.

Type: Fishing. MMSI: 228236800.

Date/timePositionNaut miles runAvg speedWind from/ knotsBaromVisibWave heightAir tempDewpointWater temp
2014-Sep-01 07:33N 43°24' E 004°59'0 0.2
2014-Sep-01 06:33N 43°24' E 004°60'  
2014-Aug-29 16:24N 43°24' E 004°60'0 0.0
2014-Aug-29 15:33N 43°24' E 004°60'0 0.0
2014-Aug-29 14:33N 43°24' E 004°60'2 2.2
2014-Aug-29 13:33N 43°22' E 004°60'6 6.0
2014-Aug-29 12:33N 43°16' E 005°02'4 3.6
2014-Aug-29 11:30N 43°15' E 004°57'4 3.9
2014-Aug-29 10:33N 43°12' E 004°53'8 3.9
2014-Aug-29 08:33N 43°08' E 004°44'4 3.7
2014-Aug-29 07:28N 43°05' E 004°40'11 3.5
2014-Aug-29 04:23N 43°15' E 004°47'4 4.2
2014-Aug-29 03:33N 43°16' E 004°51'5 5.2
2014-Aug-29 02:33N 43°20' E 004°57'5 0.5
2014-Aug-28 15:33N 43°24' E 004°60'0 0.0
2014-Aug-28 14:33N 43°24' E 004°60'3 2.5
2014-Aug-28 13:33N 43°22' E 004°58'7 7.0
2014-Aug-28 12:34N 43°15' E 004°57'4 3.7
2014-Aug-28 11:34N 43°12' E 004°53'4 4.1
2014-Aug-28 10:31N 43°12' E 004°47'10 4.3
2014-Aug-28 08:16N 43°07' E 004°35'1 1.5
2014-Aug-28 07:33N 43°07' E 004°34'5 3.5
2014-Aug-28 06:09N 43°09' E 004°40'8 4.1
2014-Aug-28 04:14N 43°15' E 004°47'3 4.2
2014-Aug-28 03:34N 43°16' E 004°51'4 4.1
2014-Aug-28 02:33N 43°18' E 004°56'7 0.6
2014-Aug-27 15:34N 43°24' E 004°60'0 0.0
2014-Aug-27 14:33N 43°24' E 004°60'2 1.6
2014-Aug-27 13:33N 43°23' E 004°59'7 6.8
2014-Aug-27 12:33N 43°16' E 004°59'4 3.7
2014-Aug-27 11:34N 43°14' E 004°55'5 4.1
2014-Aug-27 10:27N 43°12' E 004°49'9 2.8
2014-Aug-27 07:20N 43°07' E 004°39'3 4.0
2014-Aug-27 06:33N 43°09' E 004°42'5 4.1
2014-Aug-27 05:18N 43°14' E 004°45'4 4.1
2014-Aug-27 04:14N 43°16' E 004°50'3 4.1
2014-Aug-27 03:28N 43°17' E 004°54'6 6.2
2014-Aug-27 02:34N 43°22' E 004°58'2 0.2
2014-Aug-26 16:11N 43°24' E 004°60'0 0.0
2014-Aug-26 15:33N 43°24' E 004°60'0 0.3
2014-Aug-26 14:34N 43°24' E 004°59'2 1.8
2014-Aug-26 13:33N 43°22' E 004°59'6 6.4
2014-Aug-26 12:33N 43°16' E 005°00'4 3.7
2014-Aug-26 11:33N 43°15' E 004°56'4 3.7
2014-Aug-26 10:33N 43°12' E 004°52'12 3.7
2014-Aug-26 07:24N 43°04' E 004°40'14 4.3
2014-Aug-26 04:15N 43°16' E 004°50'1 1.3
2014-Aug-26 03:25N 43°16' E 004°51'4 4.5
2014-Aug-26 02:33N 43°19' E 004°55'6 6.4
2014-Aug-26 01:33N 43°24' E 004°60'0 0.0
2014-Aug-26 00:33N 43°24' E 004°60'0 0.0
2014-Aug-25 23:33N 43°24' E 004°60'0 0.0
2014-Aug-25 22:33N 43°24' E 004°60'0 0.0
2014-Aug-25 21:33N 43°24' E 004°60'0 0.0
2014-Aug-25 20:33N 43°24' E 004°60'0 0.0
2014-Aug-25 19:33N 43°24' E 004°60'0 0.0
2014-Aug-25 18:33N 43°24' E 004°60'0 0.0
2014-Aug-25 17:33N 43°24' E 004°60'0 0.0
2014-Aug-25 16:33N 43°24' E 004°60'0 0.0
2014-Aug-25 15:33N 43°24' E 004°60'0 0.0
2014-Aug-25 14:33N 43°24' E 004°60'4 3.6
2014-Aug-25 13:34N 43°21' E 004°59'3 3.3
2014-Aug-25 12:33N 43°18' E 004°56'4 3.9
2014-Aug-25 11:33N 43°17' E 004°51'4 4.1
2014-Aug-25 10:31N 43°14' E 004°46'4 4.2
2014-Aug-25 09:32N 43°10' E 004°44'7 3.3
2014-Aug-25 07:25N 43°04' E 004°39'4 3.9
2014-Aug-25 06:18N 43°08' E 004°42'8 3.9
2014-Aug-25 04:07N 43°15' E 004°48'2 4.2
2014-Aug-25 03:33N 43°16' E 004°51'4 4.4
2014-Aug-25 02:33N 43°18' E 004°56'  
2014-Aug-22 16:33N 43°24' E 004°60'0 0.0
2014-Aug-22 15:33N 43°24' E 004°60'0 0.0
2014-Aug-22 14:33N 43°24' E 004°60'4 3.9
2014-Aug-22 13:33N 43°21' E 004°57'4 4.3
2014-Aug-22 12:34N 43°18' E 004°53'4 4.0
2014-Aug-22 11:33N 43°16' E 004°48'4 3.9
2014-Aug-22 10:30N 43°12' E 004°45'3 3.7
2014-Aug-22 09:33N 43°14' E 004°49'4 4.1
2014-Aug-22 08:29N 43°15' E 004°55'1 1.4
2014-Aug-22 07:34N 43°15' E 004°57'  

Dump ship's entire track history